Time;durP1;ratioP1;P1;durP2;ratioP2;P2;SDS_P1;SDS_P2;PMS_P1;PMS_P2;Temp;Humidity;BMP_temperature;BMP_pressure;BME280_temperature;BME280_humidity;BME280_pressure;Samples;Min_cycle;Max_cycle;Signal;HPM_P1;HPM_P2
2023/06/25 00:01:48;;;;;;;16.60;11.30;;;;;;;22.93;61.01;101899.72;4985724;28;20023;-77
2023/06/25 00:04:13;;;;;;;14.45;11.45;;;;;;;22.91;60.54;101902.56;4969388;28;20026;-77
2023/06/25 00:06:38;;;;;;;16.77;12.77;;;;;;;22.67;62.25;101899.84;4986005;28;20590;-77
2023/06/25 00:09:04;;;;;;;13.15;10.25;;;;;;;22.56;61.65;101893.50;4983810;28;20038;-77
2023/06/25 00:11:29;;;;;;;14.85;11.63;;;;;;;22.52;62.19;101894.69;4986841;28;20085;-77
2023/06/25 00:13:54;;;;;;;22.88;13.80;;;;;;;22.37;63.30;101885.91;4987484;28;20489;-77
2023/06/25 00:16:20;;;;;;;19.48;12.80;;;;;;;22.33;62.94;101890.66;4987196;28;20085;-77
2023/06/25 00:18:47;;;;;;;16.05;12.32;;;;;;;22.42;61.83;101889.13;4988486;28;20475;-77
2023/06/25 00:21:13;;;;;;;18.15;13.10;;;;;;;22.25;62.38;101893.06;4984506;28;20398;-77
2023/06/25 00:23:38;;;;;;;15.95;12.57;;;;;;;22.20;62.88;101894.38;4982884;28;20038;-77
2023/06/25 00:26:03;;;;;;;14.93;11.80;;;;;;;22.20;62.79;101889.84;4986322;28;20084;-77
2023/06/25 00:28:29;;;;;;;15.07;11.80;;;;;;;22.23;63.50;101894.16;4984878;28;20452;-77
2023/06/25 00:30:54;;;;;;;13.98;11.07;;;;;;;22.23;62.08;101888.75;4982904;28;20532;-77
2023/06/25 00:33:19;;;;;;;12.80;10.68;;;;;;;22.15;62.62;101883.94;4987807;28;20033;-77
2023/06/25 00:35:47;;;;;;;16.98;13.10;;;;;;;21.77;64.61;101883.94;4989603;28;20038;-77
2023/06/25 00:38:12;;;;;;;17.35;11.88;;;;;;;21.56;63.92;101886.31;4984175;28;20031;-77
2023/06/25 00:40:38;;;;;;;16.85;12.52;;;;;;;21.68;64.73;101879.19;4983964;28;20643;-77
2023/06/25 00:43:03;;;;;;;16.88;11.82;;;;;;;21.82;63.20;101882.66;4985441;28;20507;-77
2023/06/25 00:45:29;;;;;;;17.02;12.98;;;;;;;21.67;65.06;101872.09;4984579;28;20018;-77
2023/06/25 00:47:55;;;;;;;18.40;13.93;;;;;;;21.32;66.36;101876.28;4964089;28;20065;-77
2023/06/25 00:50:21;;;;;;;17.02;12.57;;;;;;;21.33;66.08;101875.31;4985928;28;20392;-77
2023/06/25 00:52:48;;;;;;;15.05;12.52;;;;;;;21.44;64.80;101871.03;4967254;28;20038;-77
2023/06/25 00:55:14;;;;;;;18.17;12.30;;;;;;;21.51;65.86;101866.94;4985610;28;20035;-77
2023/06/25 00:57:41;;;;;;;17.20;13.45;;;;;;;21.51;65.42;101870.50;4986416;28;20397;-77
2023/06/25 01:00:12;;;;;;;15.93;12.13;;;;;;;21.42;65.12;101864.91;4985072;28;20482;-77
2023/06/25 01:03:05;;;;;;;17.27;12.25;;;;;;;21.47;64.16;101860.91;4986099;28;20033;-77
2023/06/25 01:05:54;;;;;;;18.15;13.30;;;;;;;21.45;63.74;101864.66;4987694;28;20405;-77
2023/06/25 01:08:21;;;;;;;17.55;13.52;;;;;;;21.44;65.42;101866.50;4975090;28;20046;-77
2023/06/25 01:10:47;;;;;;;17.58;13.40;;;;;;;21.41;65.42;101860.50;4979355;28;20113;-77
2023/06/25 01:13:12;;;;;;;16.27;12.40;;;;;;;21.35;65.66;101851.00;4979888;28;20117;-77
2023/06/25 01:15:37;;;;;;;16.48;13.13;;;;;;;21.32;65.71;101851.22;4981714;28;20041;-77
2023/06/25 01:18:04;;;;;;;16.85;13.50;;;;;;;21.34;65.49;101847.44;4961108;28;20539;-77
2023/06/25 01:20:30;;;;;;;18.60;13.35;;;;;;;21.39;65.46;101855.19;4983912;28;20085;-77
2023/06/25 01:22:57;;;;;;;19.00;14.18;;;;;;;21.39;64.72;101857.88;4984102;28;20030;-77
2023/06/25 01:25:23;;;;;;;17.17;12.82;;;;;;;21.33;64.54;101848.41;4985001;28;20057;-77
2023/06/25 01:27:50;;;;;;;15.70;12.10;;;;;;;21.28;64.99;101845.16;4989836;28;20337;-77
2023/06/25 01:30:17;;;;;;;15.77;12.23;;;;;;;21.35;63.60;101846.47;4985541;28;20022;-77
2023/06/25 01:32:43;;;;;;;17.73;12.10;;;;;;;21.38;64.22;101848.09;4982735;28;20030;-77
2023/06/25 01:35:11;;;;;;;16.83;13.65;;;;;;;21.20;65.25;101842.13;4988709;28;20030;-77
2023/06/25 01:37:36;;;;;;;16.52;12.73;;;;;;;21.12;65.46;101834.63;4988882;28;20105;-77
2023/06/25 01:40:01;;;;;;;18.90;13.77;;;;;;;21.09;65.85;101831.25;4991477;28;20118;-77
2023/06/25 01:42:27;;;;;;;17.20;12.32;;;;;;;21.03;65.60;101832.56;4985877;28;20034;-77
2023/06/25 01:44:52;;;;;;;15.93;11.82;;;;;;;21.07;64.97;101831.34;4988583;28;20022;-77
2023/06/25 01:47:17;;;;;;;17.05;13.82;;;;;;;21.09;66.05;101828.56;4966210;28;20038;-77
2023/06/25 01:49:43;;;;;;;17.90;13.85;;;;;;;21.06;65.44;101824.25;4988529;28;20366;-77
2023/06/25 01:52:08;;;;;;;19.00;14.73;;;;;;;21.00;66.13;101829.22;4984167;28;20269;-77
2023/06/25 01:54:34;;;;;;;15.38;13.73;;;;;;;20.70;66.90;101816.00;4987736;28;20033;-77
2023/06/25 01:57:00;;;;;;;17.60;13.10;;;;;;;20.75;65.70;101812.06;4985014;28;20053;-77
2023/06/25 01:59:25;;;;;;;16.83;11.80;;;;;;;20.85;66.67;101810.47;4992085;28;20477;-77
2023/06/25 02:01:51;;;;;;;16.83;12.80;;;;;;;20.88;65.46;101815.63;4985034;28;20113;-77
2023/06/25 02:04:16;;;;;;;15.77;12.50;;;;;;;20.82;65.06;101809.81;4985751;28;20463;-77
2023/06/25 02:06:41;;;;;;;15.52;13.50;;;;;;;20.82;66.13;101813.34;4989967;28;20030;-77
2023/06/25 02:09:07;;;;;;;18.55;15.80;;;;;;;20.80;66.01;101801.84;4985562;28;20393;-77
2023/06/25 02:11:32;;;;;;;19.52;14.48;;;;;;;20.85;65.83;101802.41;4991770;28;20032;-77
2023/06/25 02:13:58;;;;;;;16.30;14.02;;;;;;;20.83;66.03;101800.78;4987980;28;20034;-77
2023/06/25 02:16:23;;;;;;;16.38;13.40;;;;;;;20.87;66.12;101795.09;4969698;28;20022;-77
2023/06/25 02:18:49;;;;;;;15.15;12.88;;;;;;;20.76;65.61;101794.97;4983161;28;20031;-77
2023/06/25 02:21:15;;;;;;;17.40;14.13;;;;;;;20.63;66.22;101786.88;4988369;28;20034;-77
2023/06/25 02:23:40;;;;;;;15.55;11.55;;;;;;;20.64;65.16;101779.66;4986417;28;20381;-77
2023/06/25 02:26:05;;;;;;;15.82;13.75;;;;;;;20.63;66.41;101778.81;4972392;28;20109;-77
2023/06/25 02:28:30;;;;;;;19.52;13.88;;;;;;;20.37;66.86;101775.13;4991626;28;20110;-77
2023/06/25 02:30:56;;;;;;;19.80;15.13;;;;;;;20.04;68.07;101770.16;4987399;28;20100;-77
2023/06/25 02:33:21;;;;;;;17.30;14.60;;;;;;;20.10;67.78;101776.97;4985031;28;20022;-77
2023/06/25 02:35:46;;;;;;;16.20;13.00;;;;;;;20.20;66.92;101772.72;4989552;28;20065;-77
2023/06/25 02:38:12;;;;;;;16.23;11.52;;;;;;;20.30;66.27;101760.41;4986000;28;20789;-77
2023/06/25 02:40:37;;;;;;;15.93;12.68;;;;;;;20.35;67.42;101770.84;4986681;28;20039;-77
2023/06/25 02:43:02;;;;;;;17.30;13.75;;;;;;;20.32;66.27;101765.66;4983987;28;20034;-77
2023/06/25 02:45:27;;;;;;;17.67;14.52;;;;;;;20.43;65.79;101765.81;4984112;28;20450;-77
2023/06/25 02:47:53;;;;;;;16.42;13.48;;;;;;;20.28;66.66;101761.44;4987475;28;20037;-77
2023/06/25 02:50:18;;;;;;;16.13;13.30;;;;;;;20.24;66.18;101760.81;4981631;28;20056;-77
2023/06/25 02:52:43;;;;;;;16.83;13.10;;;;;;;20.22;66.34;101770.78;4983375;28;20105;-77
2023/06/25 02:55:09;;;;;;;17.48;14.68;;;;;;;20.25;66.21;101759.00;4982209;28;20022;-77
2023/06/25 02:57:35;;;;;;;18.60;15.05;;;;;;;20.30;65.43;101759.53;4979777;28;20030;-77
2023/06/25 03:00:00;;;;;;;18.15;15.43;;;;;;;20.06;66.70;101765.56;4979380;28;20034;-77
2023/06/25 03:02:26;;;;;;;17.70;15.77;;;;;;;19.97;66.79;101765.31;4982047;28;20041;-77
2023/06/25 03:04:51;;;;;;;17.75;14.80;;;;;;;19.91;67.21;101761.22;4981762;28;20053;-77
2023/06/25 03:07:17;;;;;;;17.38;13.77;;;;;;;19.90;67.16;101761.28;4978654;28;20629;-77
2023/06/25 03:09:42;;;;;;;15.88;12.85;;;;;;;19.83;66.84;101760.84;4980820;28;20019;-77
2023/06/25 03:12:08;;;;;;;15.10;12.65;;;;;;;19.77;67.45;101756.72;4982355;28;20105;-77
2023/06/25 03:14:34;;;;;;;15.95;13.57;;;;;;;19.87;66.06;101760.53;4984929;28;20040;-77
2023/06/25 03:17:00;;;;;;;15.32;13.73;;;;;;;19.85;67.44;101765.13;4988088;28;20022;-77
2023/06/25 03:19:25;;;;;;;17.75;14.05;;;;;;;19.86;67.55;101758.81;4967514;28;20023;-77
2023/06/25 03:21:50;;;;;;;16.38;13.82;;;;;;;19.87;66.83;101762.38;4982644;28;20030;-77
2023/06/25 03:24:16;;;;;;;16.00;13.23;;;;;;;19.89;66.27;101760.44;4983335;28;21926;-77
2023/06/25 03:26:41;;;;;;;16.50;12.88;;;;;;;19.85;66.14;101769.63;4979651;28;20018;-77
2023/06/25 03:29:07;;;;;;;13.05;10.82;;;;;;;19.88;67.67;101759.56;4983230;28;20189;-77
2023/06/25 03:31:32;;;;;;;13.60;11.13;;;;;;;19.97;65.94;101754.56;4982905;28;20023;-77
2023/06/25 03:33:57;;;;;;;15.32;11.32;;;;;;;19.95;66.32;101751.09;4983337;28;20033;-77
2023/06/25 03:36:22;;;;;;;12.80;11.00;;;;;;;19.94;66.23;101752.06;4982742;28;20022;-77
2023/06/25 03:38:48;;;;;;;14.70;11.90;;;;;;;19.92;65.85;101748.66;4987937;28;20026;-77
2023/06/25 03:41:13;;;;;;;16.17;12.35;;;;;;;19.87;66.73;101748.94;4984164;28;20033;-77
2023/06/25 03:43:39;;;;;;;17.20;13.65;;;;;;;19.83;66.98;101744.72;4989011;28;20246;-77
2023/06/25 03:46:04;;;;;;;15.75;13.02;;;;;;;19.75;66.52;101750.59;4984223;28;20022;-77
2023/06/25 03:48:29;;;;;;;17.08;12.32;;;;;;;19.78;66.96;101754.91;4985324;28;20032;-77
2023/06/25 03:50:55;;;;;;;14.27;12.82;;;;;;;19.86;65.70;101739.16;4985403;28;20397;-77
2023/06/25 03:53:20;;;;;;;19.25;12.98;;;;;;;19.89;65.64;101738.97;4988662;28;20121;-77
2023/06/25 03:55:46;;;;;;;19.13;15.82;;;;;;;19.57;67.99;101749.91;4968572;28;20045;-77
2023/06/25 03:58:11;;;;;;;19.30;16.05;;;;;;;19.20;69.95;101735.25;4986518;28;20053;-77
2023/06/25 04:00:37;;;;;;;20.13;15.73;;;;;;;19.06;69.70;101748.66;4980703;28;20034;-77
2023/06/25 04:03:02;;;;;;;16.98;14.38;;;;;;;19.11;69.58;101744.72;4981915;28;20034;-77
2023/06/25 04:05:28;;;;;;;21.77;17.63;;;;;;;19.11;70.46;101750.09;4977880;28;20062;-77
2023/06/25 04:07:53;;;;;;;21.00;17.50;;;;;;;19.03;71.09;101748.84;4984541;28;20510;-77
2023/06/25 04:10:19;;;;;;;20.80;18.23;;;;;;;19.03;70.72;101747.03;4981214;28;20450;-77
2023/06/25 04:12:44;;;;;;;19.95;16.77;;;;;;;19.09;70.87;101743.97;4983839;28;20026;-77
2023/06/25 04:15:09;;;;;;;22.33;18.65;;;;;;;19.12;70.64;101740.25;4978538;28;21127;-77
2023/06/25 04:17:35;;;;;;;19.48;16.50;;;;;;;19.18;70.52;101741.69;4988436;28;21511;-77
2023/06/25 04:20:00;;;;;;;20.45;17.10;;;;;;;19.26;70.39;101742.94;4967150;28;20620;-77
2023/06/25 04:22:25;;;;;;;17.83;15.77;;;;;;;19.35;70.83;101744.16;4983638;28;20113;-77
2023/06/25 04:24:50;;;;;;;21.23;17.80;;;;;;;19.47;69.52;101747.91;4982191;28;20563;-77
2023/06/25 04:27:16;;;;;;;17.60;15.80;;;;;;;19.52;70.03;101753.84;4988878;28;20065;-77
2023/06/25 04:29:41;;;;;;;17.17;15.38;;;;;;;19.56;68.87;101742.81;4985076;28;20073;-77
2023/06/25 04:32:07;;;;;;;22.65;19.00;;;;;;;19.58;69.61;101737.34;4980489;28;20485;-77
2023/06/25 04:34:32;;;;;;;21.40;19.15;;;;;;;19.55;69.36;101735.72;4985943;28;20081;-77
2023/06/25 04:36:57;;;;;;;20.35;18.20;;;;;;;19.60;69.42;101735.47;4983664;28;20058;-77
2023/06/25 04:39:22;;;;;;;24.70;21.90;;;;;;;19.67;69.45;101734.09;4985510;28;20027;-77
2023/06/25 04:41:48;;;;;;;24.10;21.50;;;;;;;19.80;69.04;101737.72;4981813;28;20073;-77
2023/06/25 04:44:13;;;;;;;26.70;23.90;;;;;;;19.75;70.61;101742.53;4980429;28;20118;-77
2023/06/25 04:46:38;;;;;;;26.42;23.70;;;;;;;19.81;70.21;101741.28;4986107;28;20409;-80
2023/06/25 04:49:04;;;;;;;26.60;23.75;;;;;;;19.84;70.28;101743.75;4983458;28;20030;-77
2023/06/25 04:51:29;;;;;;;26.67;24.05;;;;;;;19.96;70.56;101739.41;4966252;28;20026;-77
2023/06/25 04:53:54;;;;;;;29.95;26.85;;;;;;;19.98;69.35;101737.50;4991079;28;20026;-77
2023/06/25 04:56:19;;;;;;;26.40;22.80;;;;;;;20.10;68.47;101742.06;4982432;28;20077;-77
2023/06/25 04:58:45;;;;;;;25.83;23.25;;;;;;;20.13;69.99;101739.16;4988361;28;20034;-77
2023/06/25 05:01:10;;;;;;;26.38;23.67;;;;;;;20.21;68.82;101744.03;4985530;28;20387;-77
2023/06/25 05:03:35;;;;;;;24.50;22.15;;;;;;;20.23;69.37;101747.47;4990807;28;20521;-77
2023/06/25 05:06:01;;;;;;;27.25;24.48;;;;;;;20.25;69.29;101742.88;4981843;28;20092;-77
2023/06/25 05:08:26;;;;;;;28.25;25.38;;;;;;;20.29;69.24;101731.84;4983842;28;20544;-77
2023/06/25 05:10:51;;;;;;;26.45;23.80;;;;;;;20.37;69.92;101733.97;4962069;28;20085;-77
2023/06/25 05:13:17;;;;;;;28.98;26.10;;;;;;;20.42;69.10;101734.53;4985018;28;20498;-77
2023/06/25 05:15:42;;;;;;;26.25;23.65;;;;;;;20.51;67.67;101731.25;4981968;28;20053;-77
2023/06/25 05:18:08;;;;;;;29.08;26.08;;;;;;;20.52;70.05;101734.84;4985311;28;20110;-77
2023/06/25 05:20:35;;;;;;;31.48;28.10;;;;;;;20.54;70.13;101740.94;4964994;28;20031;-77
2023/06/25 05:23:03;;;;;;;28.70;25.90;;;;;;;20.60;69.33;101738.69;4986629;28;20053;-77
2023/06/25 05:25:28;;;;;;;31.13;27.83;;;;;;;20.64;71.02;101734.84;4984959;28;20022;-77
2023/06/25 05:27:53;;;;;;;31.67;28.50;;;;;;;20.68;69.66;101740.88;4987757;28;20589;-77
2023/06/25 05:30:19;;;;;;;30.92;27.92;;;;;;;20.73;69.73;101735.19;4987634;28;20077;-77
2023/06/25 05:32:44;;;;;;;30.55;27.40;;;;;;;20.81;69.00;101747.13;4983675;28;20032;-77
2023/06/25 05:35:09;;;;;;;29.25;26.35;;;;;;;20.89;67.86;101743.94;4966202;28;20134;-77
2023/06/25 05:37:34;;;;;;;32.38;28.30;;;;;;;20.94;67.94;101739.09;4983121;28;20430;-77
2023/06/25 05:40:00;;;;;;;30.88;27.88;;;;;;;21.01;68.04;101739.50;4987067;28;20030;-77
2023/06/25 05:42:25;;;;;;;29.58;26.58;;;;;;;21.07;69.90;101741.75;4965592;28;20046;-77
2023/06/25 05:44:50;;;;;;;27.75;24.85;;;;;;;21.09;66.21;101737.16;4964541;28;20033;-77
2023/06/25 05:47:16;;;;;;;30.85;27.55;;;;;;;21.11;67.69;101741.44;4985172;28;20516;-77
2023/06/25 05:49:41;;;;;;;29.52;26.52;;;;;;;21.18;71.14;101731.13;4978205;28;20026;-77
2023/06/25 05:52:06;;;;;;;28.08;24.00;;;;;;;21.22;68.87;101732.63;4987259;28;20061;-77
2023/06/25 05:54:32;;;;;;;26.17;23.48;;;;;;;21.24;68.85;101730.69;4983177;28;20505;-77
2023/06/25 05:56:57;;;;;;;26.55;23.65;;;;;;;21.32;67.42;101735.56;4972136;28;20022;-77
2023/06/25 05:59:23;;;;;;;24.00;21.20;;;;;;;21.36;65.79;101727.16;4988206;28;20519;-77
2023/06/25 06:01:48;;;;;;;29.00;23.45;;;;;;;21.42;67.06;101728.53;4990778;28;20084;-77
2023/06/25 06:04:14;;;;;;;25.30;22.60;;;;;;;21.43;67.18;101724.88;4988139;28;20413;-77
2023/06/25 06:06:39;;;;;;;23.40;20.90;;;;;;;21.45;65.42;101722.97;4983610;28;20038;-78
2023/06/25 06:09:04;;;;;;;23.30;20.85;;;;;;;21.53;66.41;101725.94;4982793;28;20080;-78
2023/06/25 06:11:30;;;;;;;22.30;18.98;;;;;;;21.56;65.00;101714.09;4993714;28;20018;-78
2023/06/25 06:13:55;;;;;;;21.92;18.83;;;;;;;21.59;64.06;101719.25;4984981;28;20088;-78
2023/06/25 06:16:20;;;;;;;23.95;19.75;;;;;;;21.66;63.35;101715.16;4985844;28;20042;-78
2023/06/25 06:18:45;;;;;;;27.15;19.55;;;;;;;21.81;63.68;101718.53;4989933;28;20062;-78
2023/06/25 06:21:11;;;;;;;25.27;19.65;;;;;;;22.08;62.88;101721.03;4988852;28;20026;-78
2023/06/25 06:23:36;;;;;;;23.77;19.17;;;;;;;22.41;62.93;101718.50;4978799;28;20474;-78
2023/06/25 06:26:01;;;;;;;22.65;19.60;;;;;;;22.76;59.54;101722.19;4980398;28;20037;-78
2023/06/25 06:28:26;;;;;;;19.98;17.25;;;;;;;23.01;59.78;101723.84;4984394;28;20030;-78
2023/06/25 06:30:52;;;;;;;21.80;17.77;;;;;;;23.19;57.73;101726.94;4982657;28;20022;-78
2023/06/25 06:33:17;;;;;;;27.00;18.65;;;;;;;23.22;57.56;101732.91;4980217;28;20149;-78
2023/06/25 06:35:42;;;;;;;25.35;19.05;;;;;;;23.32;57.52;101725.84;4966130;28;20061;-78
2023/06/25 06:38:07;;;;;;;21.38;18.20;;;;;;;23.53;57.53;101731.34;4981268;28;20034;-78
2023/06/25 06:40:33;;;;;;;25.63;18.42;;;;;;;23.61;56.84;101719.94;4992860;28;20125;-78
2023/06/25 06:42:58;;;;;;;20.70;17.80;;;;;;;23.60;57.23;101720.91;4983081;28;20072;-78
2023/06/25 06:45:23;;;;;;;21.45;17.05;;;;;;;23.64;56.36;101711.59;4982446;28;20038;-78
2023/06/25 06:47:48;;;;;;;21.08;16.40;;;;;;;23.75;56.45;101719.69;4968500;28;20034;-78
2023/06/25 06:50:14;;;;;;;19.90;17.63;;;;;;;23.63;55.41;101715.25;4967451;28;20022;-78
2023/06/25 06:52:42;;;;;;;21.92;17.02;;;;;;;23.73;56.29;101713.53;4983429;28;20041;-78
2023/06/25 06:55:08;;;;;;;18.48;15.20;;;;;;;23.87;55.87;101705.16;4967343;28;20034;-78
2023/06/25 06:57:35;;;;;;;18.35;13.90;;;;;;;24.15;53.93;101703.75;4981336;28;20069;-78
2023/06/25 07:00:01;;;;;;;15.35;12.57;;;;;;;24.53;54.36;101712.31;4983514;28;20490;-78
2023/06/25 07:02:26;;;;;;;18.58;13.48;;;;;;;24.75;52.02;101714.03;4978297;28;20060;-78
2023/06/25 07:04:52;;;;;;;17.77;12.67;;;;;;;24.63;53.55;101707.84;4983012;28;20047;-78
2023/06/25 07:07:17;;;;;;;14.98;11.65;;;;;;;24.70;54.41;101711.72;4938316;28;1293509;-78
2023/06/25 07:09:55;;;;;;;16.15;12.23;;;;;;;24.64;51.57;101704.16;4970085;28;20034;-78
2023/06/25 07:12:21;;;;;;;13.32;10.10;;;;;;;24.66;51.66;101718.38;4984588;28;20040;-78
2023/06/25 07:14:47;;;;;;;16.00;10.88;;;;;;;24.72;50.19;101714.31;4984701;28;20125;-78
2023/06/25 07:17:12;;;;;;;16.75;10.15;;;;;;;24.67;49.11;101707.47;4962752;28;20093;-77
2023/06/25 07:19:38;;;;;;;16.30;10.48;;;;;;;24.78;49.73;101717.34;4983790;28;20049;-77
2023/06/25 07:22:03;;;;;;;13.85;10.07;;;;;;;24.91;49.79;101714.44;4982658;28;20439;-77
2023/06/25 07:24:28;;;;;;;12.05;9.63;;;;;;;25.09;47.96;101712.84;4961376;28;20027;-78
2023/06/25 07:26:54;;;;;;;12.50;9.83;;;;;;;25.15;49.45;101717.72;4985065;28;20033;-78
2023/06/25 07:29:19;;;;;;;12.82;9.63;;;;;;;25.49;49.80;101708.44;4979364;28;20300;-78
2023/06/25 07:31:44;;;;;;;11.82;8.35;;;;;;;25.97;49.07;101705.03;4983875;28;20011;-78
2023/06/25 07:34:10;;;;;;;12.32;8.25;;;;;;;26.64;46.51;101704.22;4985997;28;20022;-78
2023/06/25 07:36:35;;;;;;;13.63;7.93;;;;;;;27.17;45.03;101700.94;4983511;28;20029;-78
2023/06/25 07:39:03;;;;;;;10.85;8.05;;;;;;;27.89;43.26;101700.16;4967966;28;20077;-78
2023/06/25 07:41:28;;;;;;;10.32;7.25;;;;;;;28.60;43.76;101698.44;4979221;28;20121;-78
2023/06/25 07:43:55;;;;;;;9.20;7.97;;;;;;;28.86;40.62;101696.56;4981296;28;20042;-78
2023/06/25 07:46:20;;;;;;;11.43;7.82;;;;;;;29.16;39.94;101699.84;4982342;28;20466;-78
2023/06/25 07:48:46;;;;;;;11.98;7.15;;;;;;;29.46;39.07;101706.63;4983270;28;20096;-78
2023/06/25 07:51:11;;;;;;;10.53;7.50;;;;;;;29.88;38.16;101694.84;4984096;28;20026;-78
2023/06/25 07:53:36;;;;;;;12.30;6.80;;;;;;;30.36;37.43;101694.09;4976760;28;20759;-78
2023/06/25 07:56:02;;;;;;;8.88;6.50;;;;;;;30.63;37.45;101698.34;4982682;28;20317;-78
2023/06/25 07:58:27;;;;;;;11.82;6.75;;;;;;;30.83;35.31;101689.81;4979017;28;20033;-78
2023/06/25 08:00:52;;;;;;;7.67;6.53;;;;;;;31.05;37.16;101682.75;4989639;28;20026;-78
2023/06/25 08:03:17;;;;;;;9.48;6.80;;;;;;;31.19;35.72;101682.88;4980100;28;20293;-78
2023/06/25 08:05:43;;;;;;;10.40;6.93;;;;;;;31.37;35.90;101682.66;4966788;28;20426;-78
2023/06/25 08:08:08;;;;;;;6.63;5.93;;;;;;;31.83;35.11;101677.31;4983409;28;20305;-78
2023/06/25 08:10:33;;;;;;;9.37;5.93;;;;;;;32.00;34.78;101676.19;4981107;28;20784;-78
2023/06/25 08:12:58;;;;;;;8.87;5.87;;;;;;;32.42;35.08;101679.47;4981649;28;20305;-78
2023/06/25 08:15:24;;;;;;;7.50;5.63;;;;;;;33.07;34.03;101687.06;4978008;28;20293;-78
2023/06/25 08:17:49;;;;;;;8.07;6.07;;;;;;;32.54;33.16;101680.72;4984504;28;20776;-78
2023/06/25 08:20:14;;;;;;;7.22;6.53;;;;;;;32.83;33.62;101682.66;4973010;28;20072;-78
2023/06/25 08:22:40;;;;;;;9.27;6.60;;;;;;;33.21;32.71;101679.88;4985269;28;20030;-78
2023/06/25 08:25:09;;;;;;;11.75;6.40;;;;;;;33.25;33.42;101681.19;4979449;28;20057;-78
2023/06/25 08:27:35;;;;;;;6.63;5.93;;;;;;;33.28;32.41;101674.47;4970365;28;20054;-78
2023/06/25 08:30:00;;;;;;;9.80;7.13;;;;;;;33.19;32.19;101673.69;4982241;28;20022;-78
2023/06/25 08:32:25;;;;;;;7.55;6.63;;;;;;;33.49;31.09;101672.66;4985866;28;20038;-78
2023/06/25 08:34:50;;;;;;;7.28;5.85;;;;;;;33.98;31.74;101669.22;4981286;28;20478;-78
2023/06/25 08:37:16;;;;;;;6.43;5.50;;;;;;;34.11;31.91;101676.75;4981850;28;20022;-79
2023/06/25 08:39:41;;;;;;;9.57;5.90;;;;;;;33.98;31.46;101666.47;4984338;28;20814;-79
2023/06/25 08:42:06;;;;;;;7.93;6.63;;;;;;;33.82;30.59;101660.38;4978550;28;20317;-79
2023/06/25 08:44:32;;;;;;;7.55;6.15;;;;;;;34.05;30.08;101661.06;4977203;28;20293;-78
2023/06/25 08:46:58;;;;;;;7.00;5.75;;;;;;;34.18;32.40;101663.06;4980962;28;20033;-79
2023/06/25 08:49:29;;;;;;;7.47;6.15;;;;;;;34.10;30.84;101657.72;4981521;28;20026;-79
2023/06/25 08:51:56;;;;;;;6.03;5.43;;;;;;;33.78;30.02;101659.91;4989042;28;20524;-79
2023/06/25 08:54:21;;;;;;;7.18;5.50;;;;;;;33.35;28.66;101659.81;4979813;28;20769;-79
2023/06/25 08:56:46;;;;;;;5.95;5.40;;;;;;;33.48;31.00;101662.75;4981403;28;20030;-79
2023/06/25 08:59:11;;;;;;;8.10;5.20;;;;;;;33.80;29.13;101657.81;4979155;28;20033;-79
2023/06/25 09:01:37;;;;;;;6.80;5.90;;;;;;;33.28;30.75;101658.00;4983063;28;20309;-79
2023/06/25 09:04:02;;;;;;;8.15;4.50;;;;;;;33.55;31.28;101657.31;4980512;28;20639;-79
2023/06/25 09:06:27;;;;;;;7.87;5.27;;;;;;;33.49;32.96;101658.09;4981368;28;20033;-79
2023/06/25 09:08:53;;;;;;;5.23;4.73;;;;;;;33.27;31.63;101654.44;4979532;28;20304;-79
2023/06/25 09:11:18;;;;;;;5.20;4.68;;;;;;;33.86;33.33;101651.56;4975499;28;20500;-79
2023/06/25 09:13:43;;;;;;;5.53;4.93;;;;;;;33.89;31.02;101651.16;4983608;28;20030;-79
2023/06/25 09:16:10;;;;;;;6.35;4.80;;;;;;;33.46;30.39;101651.09;4980667;28;20297;-80
2023/06/25 09:18:35;;;;;;;7.32;4.35;;;;;;;33.46;34.18;101645.63;4982532;28;20112;-80
2023/06/25 09:21:05;;;;;;;7.65;4.57;;;;;;;33.69;31.65;101641.88;4966185;28;20054;-79
2023/06/25 09:23:31;;;;;;;4.68;4.28;;;;;;;33.71;30.27;101643.38;4986551;28;20113;-79
2023/06/25 09:25:57;;;;;;;6.80;4.60;;;;;;;33.69;30.34;101639.13;4986364;28;20220;-79
2023/06/25 09:28:22;;;;;;;4.93;4.30;;;;;;;33.70;30.58;101643.56;4981680;28;20038;-79
2023/06/25 09:30:47;;;;;;;5.72;4.70;;;;;;;33.64;34.08;101636.13;4985523;28;20034;-79
2023/06/25 09:33:14;;;;;;;6.90;4.95;;;;;;;33.96;29.32;101640.28;4987073;28;20108;-79
2023/06/25 09:35:39;;;;;;;4.88;4.38;;;;;;;33.99;29.46;101635.22;4982336;28;20401;-79
2023/06/25 09:38:05;;;;;;;5.97;4.50;;;;;;;33.96;28.89;101632.91;4982516;28;20498;-78
2023/06/25 09:40:31;;;;;;;7.50;4.80;;;;;;;33.51;29.47;101637.66;4989125;28;20032;-78
2023/06/25 09:42:58;;;;;;;6.07;4.80;;;;;;;32.67;30.08;101639.00;4987405;28;20109;-79
2023/06/25 09:45:25;;;;;;;5.57;4.85;;;;;;;32.80;32.04;101633.72;4978089;28;20026;-79
2023/06/25 09:47:52;;;;;;;6.63;4.80;;;;;;;33.33;30.56;101625.38;4979767;28;20040;-79
2023/06/25 09:50:35;;;;;;;7.32;5.00;;;;;;;33.15;29.68;101621.16;4989617;28;20589;-79
2023/06/25 09:53:03;;;;;;;4.60;4.20;;;;;;;33.12;31.77;101626.19;4983557;28;20027;-79
2023/06/25 09:55:29;;;;;;;5.07;4.35;;;;;;;33.44;29.55;101617.56;4966828;28;20026;-79
2023/06/25 09:57:56;;;;;;;5.00;4.50;;;;;;;33.72;30.37;101611.31;4989665;28;20027;-79
2023/06/25 10:00:23;;;;;;;6.45;4.63;;;;;;;33.87;29.30;101622.22;4983557;28;20077;-79
2023/06/25 10:02:49;;;;;;;5.68;4.70;;;;;;;33.78;28.43;101615.19;4989017;28;20564;-79
2023/06/25 10:05:14;;;;;;;5.57;4.22;;;;;;;34.13;28.45;101616.16;4985002;28;20072;-79
2023/06/25 10:07:40;;;;;;;8.43;4.80;;;;;;;34.55;27.98;101628.97;4982880;28;20050;-79
2023/06/25 10:10:06;;;;;;;5.78;4.65;;;;;;;34.64;27.09;101614.03;4980335;28;20093;-79
2023/06/25 10:12:40;;;;;;;4.90;4.30;;;;;;;34.80;26.24;101610.13;4987905;28;20042;-79
2023/06/25 10:15:06;;;;;;;4.70;4.30;;;;;;;34.74;29.12;101605.41;4983687;28;20070;-79
2023/06/25 10:17:31;;;;;;;5.85;4.60;;;;;;;35.13;29.00;101598.47;4984827;28;20022;-79
2023/06/25 10:20:00;;;;;;;5.25;4.13;;;;;;;35.28;25.59;101599.16;4988198;28;20489;-79
2023/06/25 10:22:26;;;;;;;5.40;4.72;;;;;;;35.38;26.22;101602.34;4968779;28;20036;-78
2023/06/25 10:24:54;;;;;;;5.03;4.53;;;;;;;35.05;27.61;101595.91;4988570;28;20036;-78
2023/06/25 10:27:26;;;;;;;4.65;4.25;;;;;;;34.73;27.37;101595.50;4982653;28;20065;-78
2023/06/25 10:29:54;;;;;;;;;;;;;;;35.12;27.90;101596.78;4983541;28;20049;-78
2023/06/25 10:32:24;;;;;;;6.57;4.80;;;;;;;35.06;25.47;101598.44;4986250;28;19929;-79
2023/06/25 10:34:59;;;;;;;5.13;4.30;;;;;;;34.96;27.26;101593.31;4989071;28;20028;-79
2023/06/25 10:37:32;;;;;;;7.28;4.82;;;;;;;35.15;25.53;101590.84;4984078;28;20121;-79
2023/06/25 10:40:09;;;;;;;4.70;4.30;;;;;;;34.89;25.80;101589.69;4970498;28;20033;-79
2023/06/25 10:42:36;;;;;;;5.05;4.25;;;;;;;34.83;25.92;101579.47;4982373;28;20093;-79
2023/06/25 10:45:02;;;;;;;5.07;4.47;;;;;;;35.01;25.49;101585.31;4987947;28;20038;-79
2023/06/25 10:47:28;;;;;;;7.40;4.75;;;;;;;35.04;25.82;101580.47;4985061;28;20034;-79
2023/06/25 10:49:53;;;;;;;6.18;4.57;;;;;;;34.95;26.82;101579.75;4986160;28;20108;-78
2023/06/25 10:52:18;;;;;;;4.35;3.92;;;;;;;34.97;24.79;101580.41;4990076;28;20038;-79
2023/06/25 10:54:44;;;;;;;4.78;4.32;;;;;;;34.91;24.49;101573.81;4988686;28;20037;-79
2023/06/25 10:57:11;;;;;;;5.25;4.30;;;;;;;35.19;25.03;101571.00;4985435;28;20030;-79
2023/06/25 10:59:38;;;;;;;4.85;4.40;;;;;;;35.30;23.93;101569.53;4987619;28;20041;-79
2023/06/25 11:02:10;;;;;;;4.93;4.03;;;;;;;35.41;24.32;101571.69;4988001;28;20105;-79
2023/06/25 11:04:35;;;;;;;4.63;4.22;;;;;;;35.56;25.62;101568.81;4980189;28;20031;-79
2023/06/25 11:07:00;;;;;;;6.50;4.67;;;;;;;35.54;23.90;101561.81;4990749;28;20073;-79
2023/06/25 11:09:27;;;;;;;5.07;4.65;;;;;;;35.34;24.90;101564.47;4986880;28;20823;-79